createdAt,value
2018-10-06T00:01:07.683Z,10.92
2018-10-06T00:03:35.808Z,10.92
2018-10-06T00:06:03.932Z,10.89
2018-10-06T00:08:32.040Z,10.90
2018-10-06T00:11:00.159Z,10.89
2018-10-06T00:13:34.571Z,10.93
2018-10-06T00:16:02.718Z,10.92
2018-10-06T00:18:30.825Z,10.83
2018-10-06T00:20:58.940Z,10.79
2018-10-06T00:23:27.045Z,10.75
2018-10-06T00:25:55.154Z,10.73
2018-10-06T00:28:23.268Z,10.68
2018-10-06T00:30:51.347Z,10.65
2018-10-06T00:33:19.468Z,10.69
2018-10-06T00:35:47.621Z,10.63
2018-10-06T00:38:15.751Z,10.59
2018-10-06T00:40:43.845Z,10.48
2018-10-06T00:43:11.973Z,10.57
2018-10-06T00:45:40.108Z,10.57
2018-10-06T00:48:08.266Z,10.62
2018-10-06T00:50:36.398Z,10.62
2018-10-06T00:53:04.508Z,10.63
2018-10-06T00:55:32.626Z,10.59
2018-10-06T00:58:00.735Z,10.65
2018-10-06T01:00:28.828Z,10.62
2018-10-06T01:02:56.935Z,10.65
2018-10-06T01:05:25.016Z,10.59
2018-10-06T01:07:54.268Z,10.61
2018-10-06T01:10:22.396Z,10.67
2018-10-06T01:12:50.508Z,10.70
2018-10-06T01:15:18.647Z,10.76
2018-10-06T01:17:46.808Z,10.78
2018-10-06T01:20:14.909Z,10.79
2018-10-06T01:22:43.034Z,10.82
2018-10-06T01:25:11.153Z,10.75
2018-10-06T01:27:39.265Z,10.78
2018-10-06T01:30:07.400Z,10.80
2018-10-06T01:32:35.492Z,10.79
2018-10-06T01:35:03.621Z,10.78
2018-10-06T01:37:31.740Z,10.82
2018-10-06T01:39:59.886Z,10.78
2018-10-06T01:42:27.972Z,10.71
2018-10-06T01:44:56.088Z,10.68
2018-10-06T01:47:24.216Z,10.63
2018-10-06T01:49:52.327Z,10.59
2018-10-06T01:52:20.420Z,10.57
2018-10-06T01:54:48.544Z,10.53
2018-10-06T01:57:16.684Z,10.51
2018-10-06T01:59:44.764Z,10.46
2018-10-06T02:02:12.877Z,10.42
2018-10-06T02:04:40.968Z,10.41
2018-10-06T02:07:09.102Z,10.34
2018-10-06T02:09:37.192Z,10.28
2018-10-06T02:12:05.309Z,10.19
2018-10-06T02:14:33.437Z,10.16
2018-10-06T02:17:01.581Z,10.09
2018-10-06T02:19:29.708Z,10.03
2018-10-06T02:21:57.808Z,9.95
2018-10-06T02:24:25.912Z,9.89
2018-10-06T02:26:54.045Z,9.90
2018-10-06T02:29:22.176Z,9.94
2018-10-06T02:31:50.304Z,9.96
2018-10-06T02:34:18.476Z,9.95
2018-10-06T02:36:46.636Z,9.98
2018-10-06T02:39:14.703Z,9.95
2018-10-06T02:41:42.837Z,9.97
2018-10-06T02:44:10.940Z,9.91
2018-10-06T02:46:39.034Z,9.89
2018-10-06T02:49:07.160Z,9.84
2018-10-06T02:51:35.302Z,9.84
2018-10-06T02:54:03.408Z,9.79
2018-10-06T02:56:31.550Z,9.72
2018-10-06T02:58:59.653Z,9.68
2018-10-06T03:01:27.797Z,9.63
2018-10-06T03:03:55.918Z,9.62
2018-10-06T03:06:24.016Z,9.53
2018-10-06T03:08:52.140Z,9.42
2018-10-06T03:11:20.236Z,9.38
2018-10-06T03:13:48.375Z,9.40
2018-10-06T03:16:16.513Z,9.38
2018-10-06T03:18:44.859Z,9.40
2018-10-06T03:21:12.960Z,9.39
2018-10-06T03:23:41.651Z,9.43
2018-10-06T03:26:09.764Z,9.40
2018-10-06T03:28:37.854Z,9.37
2018-10-06T03:31:05.976Z,9.32
2018-10-06T03:33:34.078Z,9.36
2018-10-06T03:36:02.192Z,9.27
2018-10-06T03:38:30.284Z,9.20
2018-10-06T03:40:58.456Z,9.24
2018-10-06T03:43:26.561Z,9.29
2018-10-06T03:45:54.675Z,9.21
2018-10-06T03:48:22.830Z,9.15
2018-10-06T03:50:50.969Z,9.20
2018-10-06T03:53:19.076Z,9.12
2018-10-06T03:55:47.192Z,9.13
2018-10-06T03:58:15.318Z,9.14
2018-10-06T04:00:43.432Z,9.00
2018-10-06T04:03:11.532Z,8.84
2018-10-06T04:05:39.668Z,8.82
2018-10-06T04:08:07.753Z,8.82
2018-10-06T04:10:35.912Z,8.89
2018-10-06T04:13:03.996Z,8.82
2018-10-06T04:15:32.127Z,8.85
2018-10-06T04:18:00.255Z,8.81
2018-10-06T04:20:28.396Z,8.87
2018-10-06T04:22:56.502Z,8.89
2018-10-06T04:25:24.632Z,8.88
2018-10-06T04:27:52.755Z,8.72
2018-10-06T04:30:20.953Z,8.81
2018-10-06T04:32:49.084Z,8.71
2018-10-06T04:35:17.193Z,8.67
2018-10-06T04:37:45.349Z,8.72
2018-10-06T04:40:13.473Z,8.58
2018-10-06T04:42:41.564Z,8.51
2018-10-06T04:45:09.681Z,8.45
2018-10-06T04:47:37.794Z,8.42
2018-10-06T04:50:06.064Z,8.35
2018-10-06T04:52:34.200Z,8.28
2018-10-06T04:55:02.321Z,8.31
2018-10-06T04:57:30.437Z,8.31
2018-10-06T04:59:58.618Z,8.42
2018-10-06T05:02:27.192Z,8.48
2018-10-06T05:04:55.324Z,8.43
2018-10-06T05:07:23.484Z,8.37
2018-10-06T05:09:51.627Z,8.39
2018-10-06T05:12:19.755Z,8.35
2018-10-06T05:14:47.962Z,8.35
2018-10-06T05:17:16.087Z,8.40
2018-10-06T05:19:44.216Z,8.35
2018-10-06T05:22:12.376Z,8.25
2018-10-06T05:24:40.498Z,8.24
2018-10-06T05:27:08.668Z,8.33
2018-10-06T05:29:37.090Z,8.31
2018-10-06T05:32:05.319Z,8.25
2018-10-06T05:34:33.524Z,8.23
2018-10-06T05:37:01.662Z,8.09
2018-10-06T05:39:29.884Z,8.02
2018-10-06T05:41:58.020Z,7.95
2018-10-06T05:44:26.124Z,7.94
2018-10-06T05:46:55.505Z,8.03
2018-10-06T05:49:23.784Z,8.13
2018-10-06T05:51:51.902Z,8.12
2018-10-06T05:54:20.082Z,8.06
2018-10-06T05:56:48.232Z,8.04
2018-10-06T05:59:16.340Z,8.01
2018-10-06T06:01:44.492Z,8.01
2018-10-06T06:04:12.604Z,8.06
2018-10-06T06:06:40.748Z,8.19
2018-10-06T06:11:43.448Z,8.10
2018-10-06T06:14:11.763Z,8.16
2018-10-06T06:16:39.859Z,8.32
2018-10-06T06:19:08.025Z,8.31
2018-10-06T06:21:36.148Z,8.38
2018-10-06T06:24:04.368Z,8.46
2018-10-06T06:26:32.504Z,8.45
2018-10-06T06:29:00.637Z,8.58
2018-10-06T06:31:28.835Z,8.62
2018-10-06T06:33:56.866Z,8.69
2018-10-06T06:36:24.964Z,8.75
2018-10-06T06:38:53.349Z,8.90
2018-10-06T06:41:28.165Z,9.15
2018-10-06T06:43:56.478Z,9.30
2018-10-06T06:46:24.508Z,9.49
2018-10-06T06:48:52.660Z,9.65
2018-10-06T06:51:20.744Z,9.81
2018-10-06T06:53:48.877Z,9.86
2018-10-06T06:56:17.004Z,9.92
2018-10-06T06:58:45.141Z,10.05
2018-10-06T07:01:13.319Z,10.24
2018-10-06T07:03:41.540Z,10.35
2018-10-06T07:06:09.670Z,10.29
2018-10-06T07:08:37.800Z,10.36
2018-10-06T07:11:06.003Z,10.57
2018-10-06T07:13:34.145Z,10.65
2018-10-06T07:16:02.246Z,10.72
2018-10-06T07:18:30.485Z,10.84
2018-10-06T07:20:58.573Z,11.02
2018-10-06T07:23:26.688Z,11.19
2018-10-06T07:25:54.836Z,11.35
2018-10-06T07:28:23.059Z,11.48
2018-10-06T07:30:51.139Z,11.69
2018-10-06T07:33:19.276Z,11.70
2018-10-06T07:35:47.412Z,11.45
2018-10-06T07:38:15.544Z,11.49
2018-10-06T07:40:43.683Z,11.63
2018-10-06T07:43:11.836Z,11.86
2018-10-06T07:45:40.027Z,11.87
2018-10-06T07:48:08.109Z,11.80
2018-10-06T07:50:36.204Z,11.91
2018-10-06T07:53:04.322Z,12.04
2018-10-06T07:55:32.467Z,12.17
2018-10-06T07:58:00.591Z,12.38
2018-10-06T08:00:28.725Z,12.52
2018-10-06T08:02:56.836Z,12.49
2018-10-06T08:05:24.964Z,12.55
2018-10-06T08:07:53.084Z,12.58
2018-10-06T08:10:27.912Z,12.79
2018-10-06T08:12:56.193Z,13.02
2018-10-06T08:15:24.324Z,13.08
2018-10-06T08:17:52.428Z,13.12
2018-10-06T08:20:20.548Z,13.14
2018-10-06T08:22:48.961Z,13.35
2018-10-06T08:25:17.057Z,13.43
2018-10-06T08:27:45.165Z,13.69
2018-10-06T08:30:13.304Z,13.81
2018-10-06T08:32:41.421Z,13.90
2018-10-06T08:35:09.604Z,13.60
2018-10-06T08:37:37.757Z,13.52
2018-10-06T08:40:05.860Z,13.61
2018-10-06T08:42:34.015Z,13.70
2018-10-06T08:45:02.101Z,13.95
2018-10-06T08:47:30.244Z,14.28
2018-10-06T08:49:58.361Z,14.56
2018-10-06T08:52:26.500Z,14.51
2018-10-06T08:54:54.647Z,14.63
2018-10-06T08:57:22.760Z,14.54
2018-10-06T08:59:50.856Z,14.68
2018-10-06T09:02:18.956Z,15.02
2018-10-06T09:04:47.076Z,15.16
2018-10-06T09:07:15.256Z,14.89
2018-10-06T09:09:43.389Z,15.10
2018-10-06T09:12:11.515Z,15.18
2018-10-06T09:14:39.633Z,15.45
2018-10-06T09:17:07.811Z,15.75
2018-10-06T09:19:35.942Z,16.00
2018-10-06T09:22:04.085Z,16.09
2018-10-06T09:24:32.203Z,16.07
2018-10-06T09:27:00.341Z,15.96
2018-10-06T09:29:28.448Z,16.19
2018-10-06T09:31:56.556Z,16.28
2018-10-06T09:34:24.661Z,16.42
2018-10-06T09:36:52.784Z,16.61
2018-10-06T09:39:20.937Z,16.35
2018-10-06T09:41:49.080Z,16.40
2018-10-06T09:44:17.179Z,16.59
2018-10-06T09:46:45.292Z,16.53
2018-10-06T09:49:13.409Z,16.79
2018-10-06T09:51:41.655Z,16.80
2018-10-06T09:54:09.760Z,16.71
2018-10-06T09:56:37.881Z,16.81
2018-10-06T09:59:06.328Z,16.90
2018-10-06T10:01:39.766Z,16.86
2018-10-06T10:04:12.287Z,17.10
2018-10-06T10:06:40.859Z,17.12
2018-10-06T10:09:10.888Z,17.20
2018-10-06T10:11:39.192Z,17.21
2018-10-06T10:14:07.813Z,17.45
2018-10-06T10:16:35.930Z,17.55
2018-10-06T10:19:04.421Z,17.19
2018-10-06T10:21:32.701Z,17.52
2018-10-06T10:24:00.917Z,17.48
2018-10-06T10:26:29.060Z,17.62
2018-10-06T10:28:57.502Z,17.79
2018-10-06T10:31:25.744Z,17.80
2018-10-06T10:33:53.909Z,17.97
2018-10-06T10:36:22.064Z,18.26
2018-10-06T10:38:50.189Z,18.27
2018-10-06T10:41:18.287Z,18.35
2018-10-06T10:43:46.433Z,18.26
2018-10-06T10:46:14.535Z,18.15
2018-10-06T10:48:42.646Z,18.38
2018-10-06T10:51:10.769Z,18.45
2018-10-06T10:53:39.076Z,18.74
2018-10-06T10:56:07.176Z,18.65
2018-10-06T10:58:35.289Z,18.38
2018-10-06T11:01:03.455Z,18.35
2018-10-06T11:03:31.554Z,18.59
2018-10-06T11:05:59.671Z,18.86
2018-10-06T11:08:27.778Z,18.71
2018-10-06T11:10:55.909Z,18.86
2018-10-06T11:13:24.066Z,18.52
2018-10-06T11:15:52.211Z,18.80
2018-10-06T11:18:20.322Z,18.81
2018-10-06T11:20:48.544Z,18.94
2018-10-06T11:23:16.700Z,19.04
2018-10-06T11:25:44.825Z,19.35
2018-10-06T11:28:12.978Z,18.90
2018-10-06T11:30:41.111Z,19.14
2018-10-06T11:33:09.209Z,19.30
2018-10-06T11:35:37.327Z,19.42
2018-10-06T11:38:05.621Z,19.33
2018-10-06T11:40:33.684Z,19.17
2018-10-06T11:43:01.777Z,19.42
2018-10-06T11:45:29.903Z,19.68
2018-10-06T11:47:58.032Z,19.64
2018-10-06T11:50:26.270Z,19.70
2018-10-06T11:52:54.292Z,19.75
2018-10-06T11:55:22.424Z,19.55
2018-10-06T11:57:50.641Z,19.77
2018-10-06T12:00:18.844Z,19.79
2018-10-06T12:02:46.884Z,19.88
2018-10-06T12:05:15.037Z,20.10
2018-10-06T12:07:43.165Z,20.12
2018-10-06T12:10:11.272Z,19.99
2018-10-06T12:12:39.375Z,20.20
2018-10-06T12:15:07.488Z,20.43
2018-10-06T12:17:35.618Z,20.48
2018-10-06T12:20:03.721Z,20.51
2018-10-06T12:22:31.823Z,20.55
2018-10-06T12:24:59.993Z,20.53
2018-10-06T12:27:28.121Z,20.62
2018-10-06T12:29:56.261Z,20.67
2018-10-06T12:32:24.467Z,20.67
2018-10-06T12:34:52.589Z,20.86
2018-10-06T12:37:20.704Z,20.49
2018-10-06T12:39:48.877Z,20.49
2018-10-06T12:42:17.074Z,20.49
2018-10-06T12:44:45.142Z,20.41
2018-10-06T12:47:13.269Z,20.66
2018-10-06T12:49:41.416Z,20.47
2018-10-06T12:52:09.551Z,20.28
2018-10-06T12:54:37.666Z,20.34
2018-10-06T12:57:05.888Z,20.48
2018-10-06T12:59:33.997Z,20.61
2018-10-06T13:02:02.138Z,20.62
2018-10-06T13:04:30.287Z,20.76
2018-10-06T13:06:58.424Z,20.64
2018-10-06T13:09:26.545Z,20.46
2018-10-06T13:11:54.826Z,20.57
2018-10-06T13:14:22.875Z,20.67
2018-10-06T13:16:51.016Z,20.65
2018-10-06T13:19:19.148Z,20.45
2018-10-06T13:21:47.355Z,20.43
2018-10-06T13:24:15.452Z,20.38
2018-10-06T13:26:43.598Z,20.61
2018-10-06T13:29:12.568Z,20.44
2018-10-06T13:31:40.703Z,20.35
2018-10-06T13:34:08.808Z,20.45
2018-10-06T13:36:36.920Z,20.50
2018-10-06T13:39:06.871Z,20.54
2018-10-06T13:41:35.024Z,20.50
2018-10-06T13:44:03.156Z,20.41
2018-10-06T13:46:31.273Z,20.48
2018-10-06T13:48:59.385Z,20.61
2018-10-06T13:51:27.490Z,20.60
2018-10-06T13:53:55.931Z,20.61
2018-10-06T13:56:24.040Z,20.67
2018-10-06T13:58:52.227Z,20.65
2018-10-06T14:01:20.341Z,20.54
2018-10-06T14:03:48.548Z,20.53
2018-10-06T14:06:16.664Z,20.55
2018-10-06T14:08:44.765Z,20.27
2018-10-06T14:11:12.893Z,20.44
2018-10-06T14:13:41.025Z,20.30
2018-10-06T14:16:09.288Z,20.45
2018-10-06T14:18:37.431Z,20.17
2018-10-06T14:21:05.649Z,20.19
2018-10-06T14:23:33.755Z,20.37
2018-10-06T14:26:01.889Z,20.27
2018-10-06T14:28:29.998Z,20.30
2018-10-06T14:30:58.150Z,20.34
2018-10-06T14:33:26.293Z,20.48
2018-10-06T14:35:54.666Z,20.54
2018-10-06T14:38:23.405Z,20.54
2018-10-06T14:40:52.004Z,20.60
2018-10-06T14:43:20.210Z,20.57
2018-10-06T14:45:48.535Z,20.54
2018-10-06T14:48:16.694Z,20.54
2018-10-06T14:50:44.837Z,20.50
2018-10-06T14:53:13.107Z,20.50
2018-10-06T14:55:41.222Z,20.41
2018-10-06T14:58:09.364Z,20.46
2018-10-06T15:00:37.496Z,20.43
2018-10-06T15:03:05.725Z,20.40
2018-10-06T15:05:33.927Z,20.32
2018-10-06T15:08:02.104Z,20.29
2018-10-06T15:10:30.250Z,20.13
2018-10-06T15:12:58.436Z,20.07
2018-10-06T15:15:26.571Z,20.09
2018-10-06T15:17:54.703Z,20.03
2018-10-06T15:20:22.805Z,19.82
2018-10-06T15:22:50.980Z,19.73
2018-10-06T15:25:19.093Z,19.65
2018-10-06T15:27:47.247Z,19.63
2018-10-06T15:30:15.377Z,19.54
2018-10-06T15:32:43.509Z,19.42
2018-10-06T15:35:11.658Z,19.35
2018-10-06T15:37:39.873Z,19.25
2018-10-06T15:40:07.985Z,19.31
2018-10-06T15:42:36.115Z,19.21
2018-10-06T15:45:04.833Z,19.19
2018-10-06T15:47:32.949Z,19.13
2018-10-06T15:50:01.122Z,19.06
2018-10-06T15:52:29.220Z,18.94
2018-10-06T15:54:57.338Z,18.94
2018-10-06T15:57:25.447Z,18.88
2018-10-06T15:59:53.549Z,18.82
2018-10-06T16:02:21.674Z,18.73
2018-10-06T16:04:49.788Z,18.67
2018-10-06T16:07:17.953Z,18.59
2018-10-06T16:09:46.017Z,18.59
2018-10-06T16:12:14.186Z,18.50
2018-10-06T16:14:42.254Z,18.43
2018-10-06T16:17:10.375Z,18.30
2018-10-06T16:19:38.511Z,18.16
2018-10-06T16:22:06.756Z,18.05
2018-10-06T16:24:34.881Z,17.99
2018-10-06T16:27:03.146Z,17.88
2018-10-06T16:29:31.232Z,17.80
2018-10-06T16:31:59.352Z,17.74
2018-10-06T16:34:27.479Z,17.68
2018-10-06T16:36:55.628Z,17.52
2018-10-06T16:39:23.790Z,17.47
2018-10-06T16:41:51.892Z,17.42
2018-10-06T16:44:20.021Z,17.33
2018-10-06T16:46:48.132Z,17.23
2018-10-06T16:49:16.252Z,17.11
2018-10-06T16:51:44.432Z,17.02
2018-10-06T16:54:12.475Z,16.81
2018-10-06T16:56:40.577Z,16.73
2018-10-06T16:59:08.685Z,16.73
2018-10-06T17:01:36.798Z,16.77
2018-10-06T17:04:04.888Z,16.75
2018-10-06T17:06:33.001Z,16.82
2018-10-06T17:09:01.093Z,16.74
2018-10-06T17:11:29.200Z,16.73
2018-10-06T17:13:57.401Z,16.77
2018-10-06T17:16:25.505Z,16.67
2018-10-06T17:18:53.620Z,16.62
2018-10-06T17:21:21.720Z,16.51
2018-10-06T17:23:49.853Z,16.46
2018-10-06T17:26:17.960Z,16.42
2018-10-06T17:28:46.093Z,16.40
2018-10-06T17:31:14.251Z,16.44
2018-10-06T17:33:42.276Z,16.29
2018-10-06T17:36:10.372Z,16.20
2018-10-06T17:38:38.527Z,16.11
2018-10-06T17:41:06.654Z,16.00
2018-10-06T17:43:34.796Z,15.98
2018-10-06T17:46:02.904Z,15.88
2018-10-06T17:48:31.018Z,15.88
2018-10-06T17:50:59.225Z,15.91
2018-10-06T17:53:27.417Z,15.95
2018-10-06T17:55:55.525Z,15.86
2018-10-06T17:58:23.727Z,15.86
2018-10-06T18:00:51.761Z,15.84
2018-10-06T18:03:19.981Z,15.81
2018-10-06T18:05:48.096Z,15.83
2018-10-06T18:08:16.220Z,15.87
2018-10-06T18:10:44.352Z,15.85
2018-10-06T18:13:12.457Z,15.88
2018-10-06T18:15:40.565Z,15.83
2018-10-06T18:18:08.773Z,15.73
2018-10-06T18:20:37.130Z,15.59
2018-10-06T18:23:05.031Z,15.56
2018-10-06T18:25:34.049Z,15.51
2018-10-06T18:28:02.173Z,15.46
2018-10-06T18:30:30.253Z,15.47
2018-10-06T18:32:58.361Z,15.39
2018-10-06T18:35:26.468Z,15.39
2018-10-06T18:37:54.570Z,15.29
2018-10-06T18:40:22.697Z,15.25
2018-10-06T18:42:50.872Z,15.18
2018-10-06T18:45:19.028Z,15.21
2018-10-06T18:47:47.145Z,15.26
2018-10-06T18:50:15.260Z,15.08
2018-10-06T18:52:43.347Z,15.06
2018-10-06T18:55:11.480Z,15.12
2018-10-06T18:57:39.627Z,15.06
2018-10-06T19:00:08.144Z,15.03
2018-10-06T19:02:36.276Z,15.02
2018-10-06T19:05:04.375Z,14.98
2018-10-06T19:07:32.491Z,14.92
2018-10-06T19:10:00.668Z,14.95
2018-10-06T19:12:28.698Z,14.97
2018-10-06T19:14:56.815Z,14.97
2018-10-06T19:17:24.909Z,14.90
2018-10-06T19:19:53.033Z,15.01
2018-10-06T19:22:21.208Z,14.84
2018-10-06T19:24:55.976Z,14.73
2018-10-06T19:27:24.135Z,14.76
2018-10-06T19:29:52.261Z,14.73
2018-10-06T19:32:20.409Z,14.67
2018-10-06T19:34:48.527Z,14.73
2018-10-06T19:37:16.670Z,14.78
2018-10-06T19:39:44.840Z,14.79
2018-10-06T19:42:12.927Z,14.84
2018-10-06T19:44:41.032Z,14.90
2018-10-06T19:47:09.152Z,14.90
2018-10-06T19:49:37.261Z,14.81
2018-10-06T19:52:05.361Z,14.83
2018-10-06T19:54:33.478Z,14.72
2018-10-06T19:57:01.780Z,14.72
2018-10-06T19:59:29.900Z,14.71
2018-10-06T20:01:58.022Z,14.70
2018-10-06T20:04:26.146Z,14.64
2018-10-06T20:06:54.257Z,14.51
2018-10-06T20:09:22.377Z,14.52
2018-10-06T20:11:50.488Z,14.43
2018-10-06T20:14:18.608Z,14.51
2018-10-06T20:16:46.708Z,14.46
2018-10-06T20:19:15.064Z,14.44
2018-10-06T20:21:43.159Z,14.45
2018-10-06T20:24:11.362Z,14.42
2018-10-06T20:26:39.480Z,14.41
2018-10-06T20:29:07.579Z,14.42
2018-10-06T20:31:35.684Z,14.41
2018-10-06T20:34:03.788Z,14.40
2018-10-06T20:36:31.908Z,14.45
2018-10-06T20:39:00.027Z,14.48
2018-10-06T20:41:28.125Z,14.48
2018-10-06T20:43:56.241Z,14.50
2018-10-06T20:46:24.405Z,14.50
2018-10-06T20:48:52.466Z,14.45
2018-10-06T20:51:20.575Z,14.41
2018-10-06T20:53:48.693Z,14.38
2018-10-06T20:56:16.800Z,14.30
2018-10-06T20:58:44.926Z,14.19
2018-10-06T21:01:13.018Z,13.89
2018-10-06T21:03:41.144Z,13.93
2018-10-06T21:06:09.244Z,13.98
2018-10-06T21:08:37.337Z,13.94
2018-10-06T21:11:05.489Z,13.86
2018-10-06T21:13:33.690Z,13.87
2018-10-06T21:16:01.825Z,13.82
2018-10-06T21:18:30.311Z,13.90
2018-10-06T21:20:58.359Z,13.90
2018-10-06T21:23:26.464Z,13.87
2018-10-06T21:25:54.595Z,13.91
2018-10-06T21:28:22.671Z,13.81
2018-10-06T21:30:50.770Z,13.85
2018-10-06T21:33:18.905Z,13.89
2018-10-06T21:35:47.017Z,13.94
2018-10-06T21:38:15.105Z,13.90
2018-10-06T21:40:43.187Z,13.90
2018-10-06T21:43:11.973Z,13.97
2018-10-06T21:45:40.100Z,13.99
2018-10-06T21:48:08.216Z,14.00
2018-10-06T21:50:36.412Z,14.05
2018-10-06T21:53:04.464Z,14.11
2018-10-06T21:55:32.749Z,14.01
2018-10-06T21:58:00.967Z,14.14
2018-10-06T22:00:29.102Z,14.04
2018-10-06T22:02:57.211Z,13.98
2018-10-06T22:05:25.383Z,14.06
2018-10-06T22:07:53.521Z,14.08
2018-10-06T22:10:21.644Z,13.89
2018-10-06T22:12:49.749Z,13.86
2018-10-06T22:15:18.048Z,13.88
2018-10-06T22:17:46.445Z,13.93
2018-10-06T22:20:14.613Z,13.90
2018-10-06T22:22:42.700Z,13.92
2018-10-06T22:25:10.846Z,13.88
2018-10-06T22:27:38.952Z,13.86
2018-10-06T22:30:07.693Z,13.90
2018-10-06T22:32:35.830Z,13.77
2018-10-06T22:35:03.948Z,13.88
2018-10-06T22:37:32.325Z,13.94
2018-10-06T22:40:00.406Z,13.83
2018-10-06T22:42:28.501Z,13.91
2018-10-06T22:44:56.608Z,13.91
2018-10-06T22:47:24.932Z,13.89
2018-10-06T22:49:53.064Z,13.74
2018-10-06T22:52:21.193Z,13.72
2018-10-06T22:54:49.318Z,13.71
2018-10-06T22:57:17.445Z,13.70
2018-10-06T22:59:45.555Z,13.62
2018-10-06T23:02:13.795Z,13.64
2018-10-06T23:04:41.914Z,13.60
2018-10-06T23:07:10.028Z,13.63
2018-10-06T23:09:38.124Z,13.69
2018-10-06T23:12:06.284Z,13.79
2018-10-06T23:14:34.484Z,13.86
2018-10-06T23:17:02.588Z,13.94
2018-10-06T23:19:30.683Z,14.02
2018-10-06T23:21:58.832Z,14.04
2018-10-06T23:24:26.947Z,14.07
2018-10-06T23:26:55.157Z,14.13
2018-10-06T23:29:23.268Z,14.24
2018-10-06T23:31:51.408Z,14.20
2018-10-06T23:34:19.511Z,14.23
2018-10-06T23:36:47.633Z,14.23
2018-10-06T23:39:15.771Z,14.28
2018-10-06T23:41:43.872Z,14.30
2018-10-06T23:44:12.000Z,14.35
2018-10-06T23:46:40.113Z,14.33
2018-10-06T23:49:08.253Z,14.27
2018-10-06T23:51:36.459Z,14.14
2018-10-06T23:54:04.602Z,14.22
2018-10-06T23:56:32.812Z,14.21
2018-10-06T23:59:00.936Z,14.12
